Time;durP1;ratioP1;P1;durP2;ratioP2;P2;SDS_P1;SDS_P2;PMS_P1;PMS_P2;Temp;Humidity;BMP_temperature;BMP_pressure;BME280_temperature;BME280_humidity;BME280_pressure;Samples;Min_cycle;Max_cycle;Signal;HPM_P1;HPM_P2
2023/03/12 00:01:16;;;;;;;6.50;2.40;;;;;;;;;;5029235;28;20065;-79
2023/03/12 00:03:43;;;;;;;7.15;2.97;;;;;;;;;;5028939;28;20064;-78
2023/03/12 00:06:09;;;;;;;6.95;2.33;;;;;;;;;;5050952;28;20475;-79
2023/03/12 00:08:37;;;;;;;8.90;2.50;;;;;;;;;;5053569;28;20123;-80
2023/03/12 00:11:11;;;;;;;8.63;2.58;;;;;;;;;;5052385;28;20136;-79
2023/03/12 00:13:38;;;;;;;4.00;1.85;;;;;;;;;;5051215;28;20041;-79
2023/03/12 00:16:09;;;;;;;10.43;2.58;;;;;;;;;;5086527;28;20041;-80
2023/03/12 00:18:36;;;;;;;9.02;2.25;;;;;;;;;;5071515;28;20062;-80
2023/03/12 00:21:03;;;;;;;5.47;2.58;;;;;;;;;;5073101;28;20049;-80
2023/03/12 00:23:30;;;;;;;9.35;2.85;;;;;;;;;;5060412;28;20037;-80
2023/03/12 00:26:00;;;;;;;8.68;2.42;;;;;;;;;;5052814;28;20045;-82
2023/03/12 00:28:27;;;;;;;9.05;2.13;;;;;;;;;;5053007;28;20041;-80
2023/03/12 00:30:55;;;;;;;5.70;2.40;;;;;;;;;;5057488;28;20048;-80
2023/03/12 00:33:23;;;;;;;5.13;2.35;;;;;;;;;;5052307;28;20044;-79
2023/03/12 00:35:51;;;;;;;8.23;2.13;;;;;;;;;;5055408;28;20472;-82
2023/03/12 00:38:19;;;;;;;5.43;2.40;;;;;;;;;;5056268;28;20513;-79
2023/03/12 00:40:47;;;;;;;7.40;2.30;;;;;;;;;;5054082;28;20448;-80
2023/03/12 00:43:13;;;;;;;8.10;2.40;;;;;;;;;;5050035;28;20045;-79
2023/03/12 00:45:40;;;;;;;7.68;2.55;;;;;;;;;;5066833;28;20037;-78
2023/03/12 00:48:07;;;;;;;4.15;2.10;;;;;;;;;;5050222;28;20068;-79
2023/03/12 00:50:33;;;;;;;7.22;2.03;;;;;;;;;;5050212;28;20071;-80
2023/03/12 00:53:00;;;;;;;5.70;2.47;;;;;;;;;;5084327;28;20069;-79
2023/03/12 00:55:28;;;;;;;6.68;2.60;;;;;;;;;;5058059;28;20098;-79
2023/03/12 00:57:55;;;;;;;7.97;2.75;;;;;;;;;;5070844;28;20048;-79
2023/03/12 01:00:21;;;;;;;8.98;2.58;;;;;;;;;;5040579;28;20093;-80
2023/03/12 01:02:49;;;;;;;6.50;2.70;;;;;;;;;;5053252;28;20049;-80
2023/03/12 01:05:16;;;;;;;8.48;2.33;;;;;;;;;;5032852;28;20045;-79
2023/03/12 01:07:43;;;;;;;10.57;3.10;;;;;;;;;;5031294;28;20049;-78
2023/03/12 01:10:12;;;;;;;8.60;2.88;;;;;;;;;;5063896;28;20597;-79
2023/03/12 01:12:38;;;;;;;7.45;3.53;;;;;;;;;;5028597;28;20079;-78
2023/03/12 01:15:05;;;;;;;8.80;3.08;;;;;;;;;;5031601;28;20079;-78
2023/03/12 01:17:31;;;;;;;9.43;3.30;;;;;;;;;;5031366;28;20041;-78
2023/03/12 01:19:58;;;;;;;10.05;3.30;;;;;;;;;;5047833;28;20039;-79
2023/03/12 01:22:25;;;;;;;8.98;2.97;;;;;;;;;;5027632;28;20056;-78
2023/03/12 01:24:51;;;;;;;10.80;3.58;;;;;;;;;;5048380;28;20066;-78
2023/03/12 01:27:19;;;;;;;6.97;3.20;;;;;;;;;;5047966;28;20128;-79
2023/03/12 01:29:46;;;;;;;11.82;2.85;;;;;;;;;;5049537;28;20103;-78
2023/03/12 01:32:12;;;;;;;8.57;3.47;;;;;;;;;;5049360;28;20246;-79
2023/03/12 01:34:39;;;;;;;7.47;3.45;;;;;;;;;;5049217;28;20116;-79
2023/03/12 01:37:06;;;;;;;9.70;3.67;;;;;;;;;;5048439;28;20051;-79
2023/03/12 01:39:33;;;;;;;8.05;3.42;;;;;;;;;;5082386;28;20594;-79
2023/03/12 01:42:00;;;;;;;5.85;2.97;;;;;;;;;;5049021;28;20045;-80
2023/03/12 01:44:27;;;;;;;14.85;3.95;;;;;;;;;;5047675;28;20040;-79
2023/03/12 01:46:54;;;;;;;10.77;4.50;;;;;;;;;;5050264;28;20037;-78
2023/03/12 01:49:24;;;;;;;10.95;3.67;;;;;;;;;;5082803;28;20033;-80
2023/03/12 01:52:00;;;;;;;10.57;3.67;;;;;;;;;;5048947;28;20547;-80
2023/03/12 01:54:31;;;;;;;8.38;3.25;;;;;;;;;;5058431;28;20048;-79
2023/03/12 01:56:59;;;;;;;14.60;4.13;;;;;;;;;;5048068;28;20047;-80
2023/03/12 01:59:46;;;;;;;13.13;3.90;;;;;;;;;;5052723;28;20037;-79
2023/03/12 02:02:13;;;;;;;9.48;3.40;;;;;;;;;;5029583;28;20052;-79
2023/03/12 02:04:42;;;;;;;8.32;3.53;;;;;;;;;;5037974;28;20060;-80
2023/03/12 02:07:10;;;;;;;10.75;4.30;;;;;;;;;;5053493;28;20414;-79
2023/03/12 02:09:39;;;;;;;9.80;3.53;;;;;;;;;;5039635;28;20033;-79
2023/03/12 02:12:06;;;;;;;12.40;3.67;;;;;;;;;;5038822;28;20045;-80
2023/03/12 02:14:33;;;;;;;11.18;4.15;;;;;;;;;;5075673;28;20155;-80
2023/03/12 02:16:59;;;;;;;7.78;3.42;;;;;;;;;;5063216;28;20532;-80
2023/03/12 02:19:32;;;;;;;7.70;3.42;;;;;;;;;;5058162;28;20107;-80
2023/03/12 02:21:59;;;;;;;7.05;3.58;;;;;;;;;;5051939;28;20103;-79
2023/03/12 02:24:25;;;;;;;11.13;4.15;;;;;;;;;;5056092;28;20111;-78
2023/03/12 02:26:52;;;;;;;11.73;3.50;;;;;;;;;;5054871;28;20095;-80
2023/03/12 02:29:19;;;;;;;9.85;3.97;;;;;;;;;;5058518;28;20059;-80
2023/03/12 02:31:50;;;;;;;8.25;3.90;;;;;;;;;;5060025;28;20128;-81
2023/03/12 02:34:20;;;;;;;11.55;3.72;;;;;;;;;;5051817;28;20051;-80
2023/03/12 02:36:47;;;;;;;12.63;3.85;;;;;;;;;;5072532;28;20102;-81
2023/03/12 02:39:13;;;;;;;10.68;4.43;;;;;;;;;;5057616;28;20045;-81
2023/03/12 02:41:43;;;;;;;11.23;4.13;;;;;;;;;;5058473;28;20041;-80
2023/03/12 02:44:15;;;;;;;14.30;3.88;;;;;;;;;;5058057;28;20128;-81
2023/03/12 02:46:50;;;;;;;13.15;4.00;;;;;;;;;;5059251;28;20051;-80
2023/03/12 02:49:22;;;;;;;12.13;4.15;;;;;;;;;;5092432;28;20045;-80
2023/03/12 02:51:49;;;;;;;13.07;4.10;;;;;;;;;;5062184;28;20063;-82
2023/03/12 02:54:16;;;;;;;8.95;3.85;;;;;;;;;;5063022;28;20095;-81
2023/03/12 02:56:43;;;;;;;7.82;3.92;;;;;;;;;;5096334;28;20045;-81
2023/03/12 02:59:12;;;;;;;9.13;3.55;;;;;;;;;;5043521;28;20112;-81
2023/03/12 03:01:41;;;;;;;7.40;3.53;;;;;;;;;;5054211;28;20044;-81
2023/03/12 03:04:09;;;;;;;9.30;3.88;;;;;;;;;;5084294;28;20040;-80
2023/03/12 03:06:37;;;;;;;10.55;3.47;;;;;;;;;;5056994;28;20059;-80
2023/03/12 03:09:04;;;;;;;7.65;3.15;;;;;;;;;;5062756;28;20137;-81
2023/03/12 03:11:31;;;;;;;8.63;3.08;;;;;;;;;;5069191;28;20152;-79
2023/03/12 03:13:59;;;;;;;8.93;3.15;;;;;;;;;;5085759;28;20064;-80
2023/03/12 03:16:26;;;;;;;12.63;3.33;;;;;;;;;;5056845;28;20127;-79
2023/03/12 03:18:53;;;;;;;8.48;3.55;;;;;;;;;;5060932;28;20099;-80
2023/03/12 03:21:22;;;;;;;10.43;3.45;;;;;;;;;;5054548;28;20055;-80
2023/03/12 03:23:49;;;;;;;9.32;3.72;;;;;;;;;;5041643;28;20107;-78
2023/03/12 03:26:17;;;;;;;7.68;3.90;;;;;;;;;;5027298;28;20069;-79
2023/03/12 03:28:44;;;;;;;8.05;3.75;;;;;;;;;;5047882;28;20522;-79
2023/03/12 03:31:11;;;;;;;12.63;4.07;;;;;;;;;;5048006;28;20166;-78
2023/03/12 03:33:39;;;;;;;8.40;3.78;;;;;;;;;;5031636;28;20041;-78
2023/03/12 03:36:08;;;;;;;9.15;3.80;;;;;;;;;;5046341;28;20433;-77
2023/03/12 03:38:40;;;;;;;10.45;4.15;;;;;;;;;;5063567;28;20038;-79
2023/03/12 03:41:07;;;;;;;10.77;3.70;;;;;;;;;;5046578;28;20045;-79
2023/03/12 03:43:39;;;;;;;8.80;4.15;;;;;;;;;;5046006;28;20123;-78
2023/03/12 03:46:10;;;;;;;13.30;3.80;;;;;;;;;;5053917;28;20052;-79
2023/03/12 03:48:40;;;;;;;7.25;3.72;;;;;;;;;;5047296;28;20394;-79
2023/03/12 03:51:08;;;;;;;10.50;4.32;;;;;;;;;;5047943;28;20037;-78
2023/03/12 03:53:38;;;;;;;10.80;3.40;;;;;;;;;;5049743;28;20647;-78
2023/03/12 03:56:07;;;;;;;7.72;3.42;;;;;;;;;;5014892;28;20046;-78
2023/03/12 03:58:36;;;;;;;6.75;3.30;;;;;;;;;;5032729;28;20445;-78
2023/03/12 04:01:05;;;;;;;8.65;3.25;;;;;;;;;;5037404;28;20164;-80
2023/03/12 04:03:32;;;;;;;5.93;2.95;;;;;;;;;;5063882;28;20052;-79
2023/03/12 04:06:01;;;;;;;10.77;3.35;;;;;;;;;;5063543;28;20109;-79
2023/03/12 04:08:29;;;;;;;10.60;3.38;;;;;;;;;;5062720;28;20557;-79
2023/03/12 04:10:55;;;;;;;8.55;3.15;;;;;;;;;;5030756;28;20057;-79
2023/03/12 04:13:22;;;;;;;7.78;3.38;;;;;;;;;;5031444;28;20525;-80
2023/03/12 04:15:50;;;;;;;8.60;3.50;;;;;;;;;;5038646;28;20056;-80
2023/03/12 04:18:18;;;;;;;7.35;3.22;;;;;;;;;;5062794;28;20147;-77
2023/03/12 04:20:45;;;;;;;9.73;3.28;;;;;;;;;;5061651;28;20037;-79
2023/03/12 04:23:11;;;;;;;9.13;3.40;;;;;;;;;;5031223;28;20068;-81
2023/03/12 04:25:38;;;;;;;8.77;2.97;;;;;;;;;;5026786;28;20084;-81
2023/03/12 04:28:05;;;;;;;6.22;3.10;;;;;;;;;;5065848;28;20085;-79
2023/03/12 04:30:33;;;;;;;8.32;3.33;;;;;;;;;;5022593;28;20100;-80
2023/03/12 04:33:00;;;;;;;11.93;3.47;;;;;;;;;;5073363;28;20049;-79
2023/03/12 04:35:27;;;;;;;11.25;3.95;;;;;;;;;;5052219;28;20053;-80
2023/03/12 04:37:54;;;;;;;19.90;4.78;;;;;;;;;;5047935;28;20104;-77
2023/03/12 04:40:21;;;;;;;10.32;3.67;;;;;;;;;;5066176;28;20087;-78
2023/03/12 04:42:48;;;;;;;13.20;4.20;;;;;;;;;;5026134;28;20075;-79
2023/03/12 04:45:14;;;;;;;10.38;3.50;;;;;;;;;;5015820;28;20049;-79
2023/03/12 04:47:44;;;;;;;14.43;3.67;;;;;;;;;;5026708;28;20069;-80
2023/03/12 04:50:12;;;;;;;20.90;5.38;;;;;;;;;;5028394;28;20045;-80
2023/03/12 04:52:38;;;;;;;13.40;3.47;;;;;;;;;;5027768;28;20132;-79
2023/03/12 04:55:06;;;;;;;7.57;3.25;;;;;;;;;;5028912;28;20632;-79
2023/03/12 04:57:33;;;;;;;6.78;3.08;;;;;;;;;;5030201;28;20034;-80
2023/03/12 05:00:00;;;;;;;8.57;3.05;;;;;;;;;;5031932;28;20055;-78
2023/03/12 05:02:27;;;;;;;9.15;3.55;;;;;;;;;;5028783;28;20116;-79
2023/03/12 05:04:54;;;;;;;11.30;3.00;;;;;;;;;;5035298;28;20052;-80
2023/03/12 05:07:22;;;;;;;10.95;3.35;;;;;;;;;;5040949;28;20052;-80
2023/03/12 05:09:48;;;;;;;10.52;3.58;;;;;;;;;;5042797;28;20042;-80
2023/03/12 05:12:15;;;;;;;7.38;3.00;;;;;;;;;;5041884;28;20037;-80
2023/03/12 05:14:41;;;;;;;9.82;3.50;;;;;;;;;;5042773;28;20049;-79
2023/03/12 05:17:08;;;;;;;11.57;3.67;;;;;;;;;;5043616;28;20049;-80
2023/03/12 05:19:35;;;;;;;11.05;3.53;;;;;;;;;;5040885;28;20029;-79
2023/03/12 05:22:01;;;;;;;12.82;3.53;;;;;;;;;;5032764;28;20107;-78
2023/03/12 05:24:29;;;;;;;8.93;3.55;;;;;;;;;;5029805;28;20057;-79
2023/03/12 05:26:56;;;;;;;15.85;3.50;;;;;;;;;;5026664;28;20068;-79
2023/03/12 05:29:24;;;;;;;12.02;3.60;;;;;;;;;;5025665;28;20174;-79
2023/03/12 05:31:51;;;;;;;9.98;3.22;;;;;;;;;;5065684;28;20053;-79
2023/03/12 05:34:18;;;;;;;9.10;3.38;;;;;;;;;;5032201;28;20119;-79
2023/03/12 05:36:45;;;;;;;9.70;3.55;;;;;;;;;;5036003;28;20180;-79
2023/03/12 05:39:16;;;;;;;8.13;3.20;;;;;;;;;;5036345;28;20041;-79
2023/03/12 05:41:42;;;;;;;11.93;3.60;;;;;;;;;;5029134;28;20433;-78
2023/03/12 05:44:14;;;;;;;13.90;4.20;;;;;;;;;;5028452;28;20052;-77
2023/03/12 05:46:44;;;;;;;11.85;4.30;;;;;;;;;;5033791;28;20100;-78
2023/03/12 05:49:11;;;;;;;12.23;4.50;;;;;;;;;;5032250;28;20038;-79
2023/03/12 05:51:37;;;;;;;11.50;2.83;;;;;;;;;;5031157;28;20132;-80
2023/03/12 05:54:05;;;;;;;10.00;3.00;;;;;;;;;;5030274;28;20045;-79
2023/03/12 05:56:31;;;;;;;7.25;3.33;;;;;;;;;;5029089;28;20072;-78
2023/03/12 05:58:58;;;;;;;14.57;4.50;;;;;;;;;;5033027;28;20049;-78
2023/03/12 06:01:26;;;;;;;13.80;4.18;;;;;;;;;;5033397;28;20045;-77
2023/03/12 06:03:55;;;;;;;9.90;3.95;;;;;;;;;;5025303;28;20041;-76
2023/03/12 06:06:23;;;;;;;10.73;4.05;;;;;;;;;;5069793;28;20037;-80
2023/03/12 06:08:50;;;;;;;11.02;4.35;;;;;;;;;;5041238;28;20052;-80
2023/03/12 06:11:17;;;;;;;13.40;4.85;;;;;;;;;;5074340;28;20558;-80
2023/03/12 06:13:44;;;;;;;13.55;4.38;;;;;;;;;;5059178;28;20079;-80
2023/03/12 06:16:14;;;;;;;10.95;4.40;;;;;;;;;;5074766;28;20434;-78
2023/03/12 06:18:41;;;;;;;10.82;3.97;;;;;;;;;;5035700;28;20065;-79
2023/03/12 06:21:15;;;;;;;13.75;4.10;;;;;;;;;;5033774;28;20099;-77
2023/03/12 06:23:43;;;;;;;12.02;4.35;;;;;;;;;;5031322;28;20075;-79
2023/03/12 06:26:15;;;;;;;11.15;4.28;;;;;;;;;;5033529;28;20509;-79
2023/03/12 06:28:43;;;;;;;8.35;3.70;;;;;;;;;;5013421;28;20528;-79
2023/03/12 06:31:10;;;;;;;11.70;4.30;;;;;;;;;;5033075;28;20096;-79
2023/03/12 06:33:37;;;;;;;11.07;4.50;;;;;;;;;;5038640;28;20042;-76
2023/03/12 06:36:05;;;;;;;11.65;4.80;;;;;;;;;;5041528;28;20045;-77
2023/03/12 06:38:32;;;;;;;12.70;5.15;;;;;;;;;;5035600;28;20429;-80
2023/03/12 06:41:00;;;;;;;14.98;4.90;;;;;;;;;;5038930;28;20320;-80
2023/03/12 06:43:28;;;;;;;19.35;5.90;;;;;;;;;;5039288;28;20099;-79
2023/03/12 06:45:55;;;;;;;16.20;6.03;;;;;;;;;;5038844;28;20248;-79
2023/03/12 06:48:22;;;;;;;15.43;6.20;;;;;;;;;;5037675;28;20052;-80
2023/03/12 06:50:50;;;;;;;19.63;6.10;;;;;;;;;;5037016;28;20422;-78
2023/03/12 06:53:17;;;;;;;20.50;5.07;;;;;;;;;;5032134;28;20068;-78
2023/03/12 06:55:44;;;;;;;22.65;8.05;;;;;;;;;;5030760;28;20045;-78
2023/03/12 06:58:11;;;;;;;11.93;4.70;;;;;;;;;;5020326;28;20065;-78
2023/03/12 07:00:37;;;;;;;11.32;3.47;;;;;;;;;;5030833;28;20045;-79
2023/03/12 07:03:04;;;;;;;9.60;3.65;;;;;;;;;;5027006;28;20117;-79
2023/03/12 07:05:31;;;;;;;10.95;2.95;;;;;;;;;;5013025;28;20047;-78
2023/03/12 07:07:57;;;;;;;8.15;2.75;;;;;;;;;;5027804;28;20299;-77
2023/03/12 07:10:26;;;;;;;11.35;2.78;;;;;;;;;;5026400;28;20556;-78
2023/03/12 07:12:53;;;;;;;7.57;2.80;;;;;;;;;;5028950;28;20063;-78
2023/03/12 07:15:20;;;;;;;5.30;2.05;;;;;;;;;;5029610;28;20483;-79
2023/03/12 07:17:47;;;;;;;5.07;2.17;;;;;;;;;;5010601;28;20053;-80
2023/03/12 07:20:13;;;;;;;8.80;1.98;;;;;;;;;;5030114;28;20172;-77
2023/03/12 07:22:40;;;;;;;4.18;1.33;;;;;;;;;;5026597;28;20075;-77
2023/03/12 07:25:08;;;;;;;3.90;1.13;;;;;;;;;;5026670;28;20059;-77
2023/03/12 07:27:35;;;;;;;5.00;1.10;;;;;;;;;;5026268;28;20061;-78
2023/03/12 07:30:02;;;;;;;8.18;1.38;;;;;;;;;;5031159;28;20052;-78
2023/03/12 07:32:29;;;;;;;3.50;0.95;;;;;;;;;;5030114;28;20061;-79
2023/03/12 07:34:56;;;;;;;5.35;1.20;;;;;;;;;;5029824;28;20060;-77
2023/03/12 07:37:22;;;;;;;6.10;1.40;;;;;;;;;;5014565;28;20052;-76
2023/03/12 07:39:51;;;;;;;5.47;1.70;;;;;;;;;;5032709;28;20053;-79
2023/03/12 07:42:18;;;;;;;10.55;2.67;;;;;;;;;;5032677;28;20041;-77
2023/03/12 07:44:46;;;;;;;10.05;3.05;;;;;;;;;;5028490;28;20057;-77
2023/03/12 07:47:13;;;;;;;4.50;1.08;;;;;;;;;;5030494;28;20124;-78
2023/03/12 07:49:50;;;;;;;3.53;0.70;;;;;;;;;;5029124;28;20118;-78
2023/03/12 07:52:18;;;;;;;5.63;1.10;;;;;;;;;;5030751;28;20494;-77
2023/03/12 07:54:45;;;;;;;7.65;1.30;;;;;;;;;;5030174;28;20069;-78
2023/03/12 07:57:12;;;;;;;8.82;1.40;;;;;;;;;;5027552;28;20048;-79
2023/03/12 07:59:38;;;;;;;4.57;1.27;;;;;;;;;;5029285;28;20413;-78
2023/03/12 08:02:05;;;;;;;6.57;1.45;;;;;;;;;;5039444;28;20639;-78
2023/03/12 08:04:32;;;;;;;3.47;1.25;;;;;;;;;;5029644;28;20051;-78
2023/03/12 08:06:58;;;;;;;6.97;1.33;;;;;;;;;;5042301;28;20168;-77
2023/03/12 08:09:25;;;;;;;8.93;1.58;;;;;;;;;;5026954;28;20049;-78
2023/03/12 08:11:52;;;;;;;5.85;1.27;;;;;;;;;;5026007;28;20042;-78
2023/03/12 08:14:18;;;;;;;4.88;1.38;;;;;;;;;;5027596;28;20056;-78
2023/03/12 08:16:45;;;;;;;5.32;1.30;;;;;;;;;;5026330;28;20378;-77
2023/03/12 08:19:12;;;;;;;6.50;1.50;;;;;;;;;;5008407;28;20667;-79
2023/03/12 08:21:38;;;;;;;5.30;1.10;;;;;;;;;;5025305;28;20049;-78
2023/03/12 08:24:05;;;;;;;6.35;1.10;;;;;;;;;;5024132;28;20061;-79
2023/03/12 08:26:31;;;;;;;2.70;1.38;;;;;;;;;;5025082;28;20055;-79
2023/03/12 08:28:59;;;;;;;3.22;1.08;;;;;;;;;;5026143;28;20539;-79
2023/03/12 08:31:26;;;;;;;3.65;1.02;;;;;;;;;;5027827;28;20033;-81
2023/03/12 08:33:53;;;;;;;4.78;1.40;;;;;;;;;;5034148;28;20159;-79
2023/03/12 08:36:20;;;;;;;4.43;1.20;;;;;;;;;;5031875;28;20051;-74
2023/03/12 08:38:48;;;;;;;4.07;0.90;;;;;;;;;;5034107;28;20057;-79
2023/03/12 08:41:14;;;;;;;2.80;1.00;;;;;;;;;;5036757;28;20446;-77
2023/03/12 08:43:41;;;;;;;7.30;1.20;;;;;;;;;;5029005;28;20451;-79
2023/03/12 08:46:08;;;;;;;4.25;1.33;;;;;;;;;;5029614;28;20048;-77
2023/03/12 08:48:38;;;;;;;3.80;1.20;;;;;;;;;;5028307;28;20045;-78
2023/03/12 08:51:06;;;;;;;4.03;1.08;;;;;;;;;;5028965;28;20512;-77
2023/03/12 08:53:35;;;;;;;3.70;1.15;;;;;;;;;;5029093;28;20067;-79
2023/03/12 08:56:02;;;;;;;5.55;1.33;;;;;;;;;;5010336;28;20042;-77
2023/03/12 08:58:29;;;;;;;5.72;1.40;;;;;;;;;;5026480;28;20256;-78
2023/03/12 09:00:56;;;;;;;3.42;1.45;;;;;;;;;;5028441;28;20314;-78
2023/03/12 09:03:22;;;;;;;5.00;1.40;;;;;;;;;;5029452;28;20542;-79
2023/03/12 09:05:49;;;;;;;8.68;2.47;;;;;;;;;;5061336;28;20442;-77
2023/03/12 09:08:16;;;;;;;4.18;1.58;;;;;;;;;;5023034;28;20121;-78
2023/03/12 09:10:47;;;;;;;7.90;2.20;;;;;;;;;;5032235;28;20041;-78
2023/03/12 09:13:14;;;;;;;4.93;1.50;;;;;;;;;;5047127;28;20335;-78
2023/03/12 09:15:40;;;;;;;8.25;2.85;;;;;;;;;;5030821;28;20418;-78
2023/03/12 09:18:07;;;;;;;6.45;1.90;;;;;;;;;;5052735;28;20053;-80
2023/03/12 09:20:34;;;;;;;8.20;2.00;;;;;;;;;;5056173;28;20028;-80
2023/03/12 09:23:00;;;;;;;4.28;1.33;;;;;;;;;;5073434;28;20041;-80
2023/03/12 09:25:27;;;;;;;4.18;1.30;;;;;;;;;;5052645;28;20076;-79
2023/03/12 09:27:53;;;;;;;4.63;1.50;;;;;;;;;;5026424;28;20496;-78
2023/03/12 09:30:21;;;;;;;8.30;1.92;;;;;;;;;;5028279;28;20260;-78
2023/03/12 09:32:47;;;;;;;4.95;1.55;;;;;;;;;;5026922;28;20038;-78
2023/03/12 09:35:15;;;;;;;6.25;2.05;;;;;;;;;;5010263;28;20042;-79
2023/03/12 09:37:41;;;;;;;6.15;1.73;;;;;;;;;;5023733;28;20045;-79
2023/03/12 09:40:16;;;;;;;4.60;2.05;;;;;;;;;;5027794;28;20049;-80
2023/03/12 09:42:46;;;;;;;8.50;2.10;;;;;;;;;;5026401;28;20046;-79
2023/03/12 09:45:15;;;;;;;5.22;1.90;;;;;;;;;;5028862;28;20498;-79
2023/03/12 09:47:45;;;;;;;5.43;1.85;;;;;;;;;;5028763;28;20128;-79
2023/03/12 09:50:12;;;;;;;3.25;1.77;;;;;;;;;;5027075;28;20045;-79
2023/03/12 09:52:43;;;;;;;5.93;1.60;;;;;;;;;;5026855;28;20045;-78
2023/03/12 09:55:13;;;;;;;6.03;1.80;;;;;;;;;;5028262;28;20052;-79
2023/03/12 09:57:40;;;;;;;5.68;1.95;;;;;;;;;;5027126;28;20055;-79
2023/03/12 10:00:11;;;;;;;12.18;2.03;;;;;;;;;;5011720;28;20042;-80
2023/03/12 10:02:55;;;;;;;5.00;2.05;;;;;;;;;;5031835;28;20040;-79
2023/03/12 10:05:25;;;;;;;6.10;1.92;;;;;;;;;;5052748;28;20135;-79
2023/03/12 10:07:56;;;;;;;5.57;2.10;;;;;;;;;;5028699;28;20108;-78
2023/03/12 10:10:38;;;;;;;6.60;1.70;;;;;;;;;;5031908;28;20135;-79
2023/03/12 10:13:17;;;;;;;7.72;1.88;;;;;;;;;;5031016;28;20549;-81
2023/03/12 10:15:44;;;;;;;3.72;1.55;;;;;;;;;;5032937;28;20061;-80
2023/03/12 10:18:10;;;;;;;3.70;1.73;;;;;;;;;;5031110;28;20046;-80
2023/03/12 10:20:46;;;;;;;5.93;1.65;;;;;;;;;;5031564;28;20148;-79
2023/03/12 10:23:27;;;;;;;6.05;1.77;;;;;;;;;;5063819;28;20053;-79
2023/03/12 10:25:56;;;;;;;6.78;2.10;;;;;;;;;;5028474;28;20056;-80
2023/03/12 10:28:43;;;;;;;8.23;1.92;;;;;;;;;;5028816;28;20122;-79
2023/03/12 10:31:17;;;;;;;5.65;1.70;;;;;;;;;;5023477;28;20049;-79
2023/03/12 10:33:46;;;;;;;4.05;1.50;;;;;;;;;;5045417;28;20224;-78
2023/03/12 10:36:15;;;;;;;5.38;2.08;;;;;;;;;;5030302;28;20060;-78
2023/03/12 10:38:42;;;;;;;8.38;1.95;;;;;;;;;;5060218;28;20045;-79
2023/03/12 10:41:13;;;;;;;6.43;2.03;;;;;;;;;;5027738;28;20042;-78
2023/03/12 10:43:39;;;;;;;3.35;1.67;;;;;;;;;;5033178;28;20513;-78
2023/03/12 10:46:12;;;;;;;7.15;1.60;;;;;;;;;;5035733;28;20045;-80
2023/03/12 10:48:39;;;;;;;5.95;1.65;;;;;;;;;;5036730;28;20037;-81
2023/03/12 10:51:07;;;;;;;9.73;1.70;;;;;;;;;;5068147;28;20045;-81
2023/03/12 10:53:48;;;;;;;5.53;1.60;;;;;;;;;;5073087;28;20076;-79
2023/03/12 10:56:19;;;;;;;5.75;2.05;;;;;;;;;;5038210;28;20049;-81
2023/03/12 10:58:47;;;;;;;5.97;1.80;;;;;;;;;;5041713;28;20067;-80
2023/03/12 11:01:13;;;;;;;3.58;1.85;;;;;;;;;;5042353;28;20076;-79
2023/03/12 11:03:41;;;;;;;6.03;1.80;;;;;;;;;;5058191;28;20079;-78
2023/03/12 11:06:14;;;;;;;6.10;2.00;;;;;;;;;;5062604;28;20037;-77
2023/03/12 11:08:41;;;;;;;7.28;1.70;;;;;;;;;;5060198;28;20132;-78
2023/03/12 11:11:08;;;;;;;5.18;1.58;;;;;;;;;;5057650;28;20045;-78
2023/03/12 11:13:35;;;;;;;6.28;1.55;;;;;;;;;;5055869;28;20805;-77
2023/03/12 11:16:19;;;;;;;5.47;1.48;;;;;;;;;;5055965;28;20079;-77
2023/03/12 11:18:58;;;;;;;5.93;1.42;;;;;;;;;;5056553;28;20052;-77
2023/03/12 11:21:25;;;;;;;5.70;1.80;;;;;;;;;;5040122;28;20049;-76
2023/03/12 11:23:55;;;;;;;7.80;2.00;;;;;;;;;;5032856;28;20045;-77
2023/03/12 11:26:22;;;;;;;6.07;1.60;;;;;;;;;;5033904;28;20453;-79
2023/03/12 11:28:51;;;;;;;5.22;1.60;;;;;;;;;;5029198;28;20049;-77
2023/03/12 11:31:20;;;;;;;3.10;1.30;;;;;;;;;;5028427;28;20103;-77
2023/03/12 11:33:47;;;;;;;5.95;1.33;;;;;;;;;;5030508;28;20064;-78
2023/03/12 11:36:20;;;;;;;7.20;1.60;;;;;;;;;;5050841;28;20052;-78
2023/03/12 11:38:49;;;;;;;4.30;1.40;;;;;;;;;;5050291;28;20045;-78
2023/03/12 11:41:19;;;;;;;4.88;1.55;;;;;;;;;;5049166;28;20067;-78
2023/03/12 11:44:08;;;;;;;9.85;1.40;;;;;;;;;;5046771;28;20080;-77
2023/03/12 11:46:50;;;;;;;6.25;1.40;;;;;;;;;;5046839;28;20033;-77
2023/03/12 11:49:25;;;;;;;6.93;1.63;;;;;;;;;;5072818;28;20040;-80
2023/03/12 11:52:01;;;;;;;4.78;1.40;;;;;;;;;;5072246;28;20064;-80
2023/03/12 11:54:27;;;;;;;;;;;;;;;;;;5071353;28;20021;-77
2023/03/12 11:56:57;;;;;;;6.32;1.33;;;;;;;;;;5048656;28;19933;-77
2023/03/12 11:59:30;;;;;;;5.60;1.33;;;;;;;;;;5051536;28;20153;-77
2023/03/12 12:01:57;;;;;;;7.38;1.35;;;;;;;;;;5084637;28;20075;-76
2023/03/12 12:04:29;;;;;;;3.92;1.67;;;;;;;;;;5053399;28;20041;-77
2023/03/12 12:06:56;;;;;;;3.80;1.40;;;;;;;;;;5053403;28;20037;-77
2023/03/12 12:09:31;;;;;;;4.10;1.45;;;;;;;;;;5056576;28;20053;-78
2023/03/12 12:11:57;;;;;;;5.32;1.60;;;;;;;;;;5059285;28;20447;-77
2023/03/12 12:14:41;;;;;;;7.93;1.65;;;;;;;;;;5057142;28;20143;-77
2023/03/12 12:17:26;;;;;;;5.35;1.75;;;;;;;;;;5053563;28;20127;-78
2023/03/12 12:20:08;;;;;;;6.55;1.50;;;;;;;;;;5055959;28;20115;-78
2023/03/12 12:22:49;;;;;;;3.03;1.67;;;;;;;;;;5058111;28;20045;-79
2023/03/12 12:25:28;;;;;;;5.18;2.17;;;;;;;;;;5051410;28;20065;-78
2023/03/12 12:28:15;;;;;;;6.75;1.80;;;;;;;;;;5035100;28;20051;-78
2023/03/12 12:30:50;;;;;;;2.25;1.40;;;;;;;;;;5055747;28;20037;-78
2023/03/12 12:33:17;;;;;;;6.63;1.80;;;;;;;;;;5057309;28;20068;-78
2023/03/12 12:35:46;;;;;;;6.25;1.50;;;;;;;;;;5055944;28;20040;-78
2023/03/12 12:38:29;;;;;;;4.43;1.73;;;;;;;;;;5060174;28;20045;-79
2023/03/12 12:41:02;;;;;;;6.82;2.30;;;;;;;;;;5070244;28;20057;-82
2023/03/12 12:43:31;;;;;;;7.80;2.22;;;;;;;;;;5066115;28;20175;-82
2023/03/12 12:46:27;;;;;;;5.43;2.22;;;;;;;;;;5070810;28;20045;-80
2023/03/12 12:48:56;;;;;;;7.13;2.10;;;;;;;;;;5053901;28;20110;-80
2023/03/12 12:51:26;;;;;;;8.50;2.17;;;;;;;;;;5066834;28;20041;-83
2023/03/12 12:53:52;;;;;;;6.68;1.85;;;;;;;;;;5066739;28;20049;-81
2023/03/12 12:56:28;;;;;;;5.70;1.88;;;;;;;;;;5067038;28;20041;-82
2023/03/12 12:59:06;;;;;;;5.32;1.92;;;;;;;;;;5069141;28;20060;-82
2023/03/12 13:01:33;;;;;;;4.57;1.90;;;;;;;;;;5060450;28;20044;-79
2023/03/12 13:04:03;;;;;;;6.50;2.00;;;;;;;;;;5088394;28;20323;-81
2023/03/12 13:06:50;;;;;;;5.43;1.80;;;;;;;;;;5071421;28;20045;-81
2023/03/12 13:09:20;;;;;;;6.38;1.90;;;;;;;;;;5070147;28;20049;-79
2023/03/12 13:11:48;;;;;;;7.13;2.33;;;;;;;;;;5064700;28;20051;-78
2023/03/12 13:14:33;;;;;;;9.02;1.92;;;;;;;;;;5035691;28;20046;-80
2023/03/12 13:17:20;;;;;;;6.63;1.50;;;;;;;;;;5045333;28;20424;-78
2023/03/12 13:19:49;;;;;;;5.10;1.60;;;;;;;;;;5049163;28;20072;-81
2023/03/12 13:22:25;;;;;;;4.13;1.70;;;;;;;;;;5048213;28;20056;-81
2023/03/12 13:25:01;;;;;;;6.90;1.85;;;;;;;;;;5048627;28;20049;-80
2023/03/12 13:27:29;;;;;;;4.95;1.85;;;;;;;;;;5044893;28;20045;-80
2023/03/12 13:29:56;;;;;;;8.07;1.92;;;;;;;;;;5045226;28;20129;-80
2023/03/12 13:32:35;;;;;;;8.32;2.00;;;;;;;;;;5047960;28;20529;-80
2023/03/12 13:35:14;;;;;;;6.85;2.10;;;;;;;;;;5042645;28;20053;-80
2023/03/12 13:37:57;;;;;;;7.68;2.20;;;;;;;;;;5086441;28;20233;-81
2023/03/12 13:40:36;;;;;;;6.47;1.90;;;;;;;;;;5064728;28;20044;-80
2023/03/12 13:43:08;;;;;;;11.02;2.30;;;;;;;;;;5094085;28;20064;-79
2023/03/12 13:45:57;;;;;;;7.13;2.35;;;;;;;;;;5064094;28;20049;-81
2023/03/12 13:48:24;;;;;;;7.03;2.20;;;;;;;;;;5063675;28;20044;-82
2023/03/12 13:50:54;;;;;;;8.25;2.33;;;;;;;;;;5068307;28;20044;-82
2023/03/12 13:53:25;;;;;;;6.57;2.30;;;;;;;;;;5067979;28;20123;-81
2023/03/12 13:56:00;;;;;;;5.55;1.90;;;;;;;;;;5068620;28;20073;-80
2023/03/12 13:58:27;;;;;;;5.70;1.70;;;;;;;;;;5099964;28;20055;-80
2023/03/12 14:01:05;;;;;;;6.28;1.85;;;;;;;;;;5069264;28;20044;-78
2023/03/12 14:03:34;;;;;;;15.23;2.17;;;;;;;;;;5050386;28;20040;-79
2023/03/12 14:06:03;;;;;;;6.65;2.33;;;;;;;;;;5068932;28;20514;-79
2023/03/12 14:08:45;;;;;;;8.10;2.33;;;;;;;;;;5066115;28;20056;-79
2023/03/12 14:11:15;;;;;;;7.00;2.28;;;;;;;;;;5064548;28;20045;-78
2023/03/12 14:14:04;;;;;;;5.15;1.85;;;;;;;;;;5066556;28;20049;-79
2023/03/12 14:16:38;;;;;;;5.38;1.70;;;;;;;;;;5044448;28;20041;-79
2023/03/12 14:19:06;;;;;;;4.97;2.15;;;;;;;;;;5048501;28;20045;-80
2023/03/12 14:21:34;;;;;;;5.15;2.00;;;;;;;;;;5046468;28;20061;-80
2023/03/12 14:24:03;;;;;;;8.48;2.45;;;;;;;;;;5060741;28;20053;-80
2023/03/12 14:26:35;;;;;;;7.07;2.70;;;;;;;;;;5064301;28;20479;-80
2023/03/12 14:29:04;;;;;;;6.32;2.40;;;;;;;;;;5064402;28;20053;-80
2023/03/12 14:31:31;;;;;;;4.68;2.08;;;;;;;;;;5067691;28;20045;-78
2023/03/12 14:33:57;;;;;;;9.32;2.10;;;;;;;;;;5066509;28;20056;-79
2023/03/12 14:36:26;;;;;;;7.00;2.08;;;;;;;;;;5096895;28;20049;-80
2023/03/12 14:38:57;;;;;;;4.95;2.00;;;;;;;;;;5064770;28;20117;-79
2023/03/12 14:41:30;;;;;;;6.75;2.53;;;;;;;;;;5064771;28;20064;-81
2023/03/12 14:44:03;;;;;;;6.50;2.20;;;;;;;;;;5060872;28;20057;-79
2023/03/12 14:46:29;;;;;;;5.82;2.40;;;;;;;;;;5058850;28;20222;-79
2023/03/12 14:48:56;;;;;;;5.60;2.25;;;;;;;;;;5058884;28;20091;-78
2023/03/12 14:51:23;;;;;;;6.22;1.73;;;;;;;;;;5058553;28;20045;-79
2023/03/12 14:53:50;;;;;;;6.13;2.25;;;;;;;;;;5060312;28;20053;-79